Terminal Aerodrome Forecast
Issued by NWS Huntsville, AL

Home | Current Version | Previous Version | Text Only | Print | Product List | Glossary On
Versions: 1 2 3 4 5 6 7 8 9 10 11 12 13 14 15 16 17 18 19 20 21 22 23 24 25 26 27 28 29 30 31 32 33 34 35
000
FTUS44 KHUN 231727 CCA
TAFHSV
TAF COR
KHSV 231727Z 2318/2418 VRB04KT P6SM VCSH BKN040
      TEMPO 2318/2320 5SM TSRA SCT020 OVC035CB
     FM240200 VRB03KT P6SM VCSH SCT040 BKN100
      TEMPO 2410/2414 5SM TSRA BR SCT020 OVC040CB
     FM241500 26006KT P6SM VCSH BKN040=

USA.gov is the U.S. government's official web portal to all federal, state and local government web resources and services.